Time;durP1;ratioP1;P1;durP2;ratioP2;P2;SDS_P1;SDS_P2;PMS_P1;PMS_P2;Temp;Humidity;BMP_temperature;BMP_pressure;BME280_temperature;BME280_humidity;BME280_pressure;Samples;Min_cycle;Max_cycle;Signal;HPM_P1;HPM_P2
2023/03/03 00:00:09;;;;;;;11.98;4.53;;;19.20;69.70;;;;;;5034790;28;20064;-79
2023/03/03 00:02:36;;;;;;;12.20;4.97;;;19.10;69.70;;;;;;5033635;28;20053;-79
2023/03/03 00:05:03;;;;;;;9.40;3.80;;;19.10;69.70;;;;;;5056140;28;20056;-79
2023/03/03 00:07:30;;;;;;;11.98;4.53;;;19.10;69.70;;;;;;5050080;28;20049;-79
2023/03/03 00:09:58;;;;;;;9.98;4.10;;;19.10;69.60;;;;;;5048781;28;20045;-79
2023/03/03 00:12:28;;;;;;;10.43;3.72;;;19.10;69.70;;;;;;5049432;28;20049;-79
2023/03/03 00:14:55;;;;;;;10.88;4.47;;;19.00;69.60;;;;;;5032612;28;20506;-79
2023/03/03 00:17:24;;;;;;;8.70;3.58;;;19.10;69.70;;;;;;5036609;28;20084;-79
2023/03/03 00:19:51;;;;;;;10.40;4.03;;;19.00;69.70;;;;;;5043981;28;20069;-79
2023/03/03 00:22:28;;;;;;;8.88;4.13;;;19.00;69.70;;;;;;5045120;28;20057;-79
2023/03/03 00:24:55;;;;;;;11.73;3.83;;;18.90;69.60;;;;;;5058717;28;20136;-80
2023/03/03 00:27:34;;;;;;;9.38;3.67;;;19.00;69.80;;;;;;5051443;28;20060;-79
2023/03/03 00:30:01;;;;;;;8.07;3.47;;;18.90;69.60;;;;;;5048117;28;20057;-79
2023/03/03 00:32:38;;;;;;;9.23;3.45;;;18.90;69.70;;;;;;5033150;28;20060;-80
2023/03/03 00:35:23;;;;;;;10.75;3.90;;;18.90;69.80;;;;;;5031748;28;20053;-79
2023/03/03 00:37:55;;;;;;;8.80;3.65;;;18.90;69.70;;;;;;5043893;28;20072;-79
2023/03/03 00:40:24;;;;;;;8.50;4.35;;;18.90;69.70;;;;;;5052283;28;20061;-79
2023/03/03 00:42:55;;;;;;;8.52;3.35;;;18.80;69.70;;;;;;5051711;28;20057;-80
2023/03/03 00:45:31;;;;;;;7.97;3.60;;;18.80;69.70;;;;;;5052926;28;20049;-79
2023/03/03 00:47:59;;;;;;;11.45;3.75;;;18.80;69.70;;;;;;5040360;28;20053;-80
2023/03/03 00:50:29;;;;;;;9.60;3.30;;;18.80;69.70;;;;;;5050638;28;20061;-79
2023/03/03 00:53:03;;;;;;;8.52;3.28;;;18.80;69.70;;;;;;5051683;28;20048;-80
2023/03/03 00:55:31;;;;;;;11.48;3.63;;;18.70;69.70;;;;;;5050340;28;20395;-80
2023/03/03 00:57:59;;;;;;;8.88;3.45;;;18.70;69.70;;;;;;5051433;28;20049;-80
2023/03/03 01:00:26;;;;;;;8.48;3.42;;;18.70;69.70;;;;;;5051948;28;20053;-80
2023/03/03 01:02:53;;;;;;;9.30;3.58;;;18.70;69.70;;;;;;5050289;28;20502;-80
2023/03/03 01:05:22;;;;;;;7.90;3.03;;;18.70;69.70;;;;;;5051194;28;20056;-79
2023/03/03 01:07:49;;;;;;;8.95;3.65;;;18.70;69.70;;;;;;5052392;28;20045;-79
2023/03/03 01:10:16;;;;;;;8.90;3.03;;;18.60;69.60;;;;;;5052712;28;20472;-79
2023/03/03 01:12:43;;;;;;;7.20;2.97;;;18.60;69.60;;;;;;5042657;28;20049;-79
2023/03/03 01:15:13;;;;;;;8.85;3.40;;;18.70;69.50;;;;;;5037044;28;20045;-79
2023/03/03 01:17:41;;;;;;;9.68;3.13;;;18.70;69.50;;;;;;5052551;28;20445;-79
2023/03/03 01:20:10;;;;;;;8.48;3.00;;;18.70;69.40;;;;;;5047458;28;20056;-79
2023/03/03 01:22:37;;;;;;;7.85;2.78;;;18.80;69.40;;;;;;5031065;28;20056;-79
2023/03/03 01:25:05;;;;;;;7.30;2.92;;;18.80;69.30;;;;;;5036606;28;20056;-79
2023/03/03 01:27:32;;;;;;;7.95;3.55;;;18.80;69.10;;;;;;5050328;28;20496;-79
2023/03/03 01:29:59;;;;;;;6.55;3.25;;;18.90;69.00;;;;;;5052072;28;20053;-79
2023/03/03 01:32:28;;;;;;;7.95;2.63;;;18.90;68.90;;;;;;5050706;28;20114;-79
2023/03/03 01:34:55;;;;;;;9.45;3.35;;;19.00;68.80;;;;;;5051776;28;20045;-80
2023/03/03 01:37:22;;;;;;;7.03;3.00;;;19.10;68.80;;;;;;5050219;28;20049;-80
2023/03/03 01:39:50;;;;;;;6.25;2.75;;;19.10;68.60;;;;;;5050727;28;20068;-79
2023/03/03 01:42:18;;;;;;;7.15;2.55;;;19.20;68.50;;;;;;5049590;28;20055;-80
2023/03/03 01:44:45;;;;;;;7.28;2.85;;;19.20;68.30;;;;;;5050685;28;20135;-79
2023/03/03 01:47:14;;;;;;;9.75;2.63;;;19.30;68.30;;;;;;5051512;28;20057;-79
2023/03/03 01:49:47;;;;;;;5.45;2.15;;;19.30;68.10;;;;;;5050647;28;20054;-80
2023/03/03 01:52:21;;;;;;;7.90;2.92;;;19.30;68.00;;;;;;5049708;28;20053;-79
2023/03/03 01:54:52;;;;;;;5.50;2.20;;;19.30;68.00;;;;;;5051544;28;20053;-80
2023/03/03 01:57:24;;;;;;;5.75;2.35;;;19.30;68.00;;;;;;5036557;28;20052;-79
2023/03/03 01:59:53;;;;;;;6.30;2.65;;;19.40;68.00;;;;;;5031882;28;20049;-79
2023/03/03 02:02:20;;;;;;;7.68;2.50;;;19.30;68.00;;;;;;5035778;28;20576;-79
2023/03/03 02:04:50;;;;;;;6.25;2.38;;;19.30;68.00;;;;;;5051624;28;20056;-79
2023/03/03 02:07:18;;;;;;;5.85;2.20;;;19.30;68.00;;;;;;5050545;28;20521;-79
2023/03/03 02:09:52;;;;;;;5.10;2.33;;;19.30;68.00;;;;;;5049580;28;20056;-79
2023/03/03 02:12:22;;;;;;;7.43;2.63;;;19.30;68.00;;;;;;5036595;28;20441;-79
2023/03/03 02:14:49;;;;;;;7.38;2.63;;;19.30;68.00;;;;;;5051049;28;20052;-78
2023/03/03 02:17:17;;;;;;;7.65;3.20;;;19.30;68.00;;;;;;5050181;28;20053;-79
2023/03/03 02:19:52;;;;;;;7.32;2.05;;;19.20;68.00;;;;;;5048640;28;20045;-79
2023/03/03 02:22:26;;;;;;;6.07;2.03;;;19.20;68.00;;;;;;5045725;28;20056;-80
2023/03/03 02:24:59;;;;;;;5.97;2.08;;;19.20;68.00;;;;;;5051187;28;20493;-79
2023/03/03 02:27:31;;;;;;;6.88;2.50;;;19.10;68.00;;;;;;5050981;28;20064;-79
2023/03/03 02:29:58;;;;;;;7.70;2.17;;;19.10;68.00;;;;;;5049667;28;20040;-79
2023/03/03 02:32:25;;;;;;;5.15;2.35;;;19.10;68.10;;;;;;5050352;28;20076;-79
2023/03/03 02:34:52;;;;;;;6.50;1.95;;;19.10;68.10;;;;;;5048653;28;20490;-79
2023/03/03 02:37:20;;;;;;;6.90;2.30;;;19.00;68.10;;;;;;5050769;28;20418;-80
2023/03/03 02:39:47;;;;;;;8.30;2.53;;;19.00;68.10;;;;;;5050456;28;20063;-79
2023/03/03 02:42:18;;;;;;;6.38;2.72;;;19.00;68.20;;;;;;5050431;28;20211;-79
2023/03/03 02:44:46;;;;;;;5.35;2.28;;;18.90;68.20;;;;;;5049717;28;20060;-80
2023/03/03 02:47:13;;;;;;;8.23;2.75;;;18.90;68.20;;;;;;5045248;28;20072;-80
2023/03/03 02:49:41;;;;;;;4.40;2.00;;;18.90;68.20;;;;;;5039336;28;20068;-80
2023/03/03 02:52:11;;;;;;;8.95;2.70;;;18.80;68.20;;;;;;5049352;28;20044;-80
2023/03/03 02:54:38;;;;;;;7.53;2.20;;;18.80;68.30;;;;;;5036982;28;20119;-79
2023/03/03 02:57:06;;;;;;;5.68;2.17;;;18.80;68.30;;;;;;5030940;28;20057;-80
2023/03/03 02:59:33;;;;;;;5.43;2.10;;;18.80;68.60;;;;;;5037423;28;20045;-80
2023/03/03 03:02:01;;;;;;;4.97;2.50;;;18.80;68.30;;;;;;5050436;28;20052;-79
2023/03/03 03:04:28;;;;;;;5.68;1.92;;;18.70;68.30;;;;;;5060182;28;20136;-80
2023/03/03 03:06:56;;;;;;;6.93;2.08;;;18.70;68.30;;;;;;5066329;28;20060;-79
2023/03/03 03:09:24;;;;;;;6.22;2.50;;;18.70;68.30;;;;;;5044326;28;20138;-79
2023/03/03 03:11:51;;;;;;;5.57;2.05;;;18.70;68.30;;;;;;5033362;28;20070;-80
2023/03/03 03:14:18;;;;;;;5.28;2.08;;;18.70;68.30;;;;;;5048693;28;20792;-79
2023/03/03 03:16:45;;;;;;;6.28;1.88;;;18.70;68.20;;;;;;5050256;28;20138;-79
2023/03/03 03:19:14;;;;;;;4.18;1.45;;;18.70;68.20;;;;;;5049597;28;20045;-79
2023/03/03 03:21:40;;;;;;;4.90;1.83;;;18.70;68.10;;;;;;5049825;28;20049;-79
2023/03/03 03:24:08;;;;;;;4.20;1.55;;;18.70;68.10;;;;;;5049843;28;20049;-79
2023/03/03 03:26:35;;;;;;;4.70;1.63;;;18.80;68.00;;;;;;5049176;28;20065;-79
2023/03/03 03:29:01;;;;;;;5.03;1.85;;;18.80;68.00;;;;;;5049788;28;20053;-79
2023/03/03 03:31:28;;;;;;;4.97;1.60;;;18.80;67.90;;;;;;5050097;28;20044;-80
2023/03/03 03:33:55;;;;;;;3.72;1.75;;;18.90;67.80;;;;;;5049497;28;20045;-79
2023/03/03 03:36:25;;;;;;;4.78;1.58;;;18.90;67.70;;;;;;5046355;28;20053;-80
2023/03/03 03:38:52;;;;;;;4.20;1.85;;;19.00;67.60;;;;;;5031472;28;20099;-79
2023/03/03 03:41:19;;;;;;;5.65;1.67;;;19.00;67.50;;;;;;5050384;28;20049;-79
2023/03/03 03:43:47;;;;;;;6.20;1.90;;;19.00;67.40;;;;;;5049193;28;20526;-79
2023/03/03 03:46:14;;;;;;;4.15;1.38;;;19.10;67.40;;;;;;5050357;28;20049;-80
2023/03/03 03:48:41;;;;;;;5.10;1.73;;;19.10;67.40;;;;;;5050266;28;20057;-80
2023/03/03 03:51:09;;;;;;;5.25;1.83;;;19.10;67.30;;;;;;5048864;28;20045;-79
2023/03/03 03:53:38;;;;;;;4.43;1.60;;;19.10;67.20;;;;;;5048805;28;20159;-80
2023/03/03 03:56:05;;;;;;;3.83;1.48;;;19.20;67.20;;;;;;5044908;28;20057;-80
2023/03/03 03:58:32;;;;;;;4.75;1.83;;;19.20;67.10;;;;;;5048344;28;20053;-79
2023/03/03 04:01:03;;;;;;;4.72;1.65;;;19.20;67.00;;;;;;5053552;28;20517;-79
2023/03/03 04:03:30;;;;;;;4.78;1.83;;;19.30;67.50;;;;;;5053772;28;20099;-79
2023/03/03 04:05:57;;;;;;;4.60;1.48;;;19.30;66.90;;;;;;5053893;28;20072;-79
2023/03/03 04:08:24;;;;;;;4.30;1.70;;;19.30;66.90;;;;;;5035702;28;20053;-80
2023/03/03 04:10:52;;;;;;;5.25;1.58;;;19.30;66.90;;;;;;5048179;28;20068;-79
2023/03/03 04:13:19;;;;;;;5.00;1.75;;;19.30;66.90;;;;;;5052620;28;20052;-79
2023/03/03 04:15:46;;;;;;;4.90;2.25;;;19.30;66.90;;;;;;5052425;28;20490;-79
2023/03/03 04:18:13;;;;;;;3.33;1.52;;;19.30;66.90;;;;;;5052487;28;20049;-80
2023/03/03 04:20:40;;;;;;;4.40;1.65;;;19.20;66.90;;;;;;5052872;28;20052;-79
2023/03/03 04:23:07;;;;;;;4.03;1.65;;;19.20;66.90;;;;;;5053810;28;20052;-79
2023/03/03 04:25:34;;;;;;;3.50;1.33;;;19.20;66.90;;;;;;5053850;28;20049;-80
2023/03/03 04:28:02;;;;;;;3.72;1.52;;;19.20;66.90;;;;;;5038370;28;20422;-79
2023/03/03 04:30:30;;;;;;;4.50;1.40;;;19.10;66.90;;;;;;5040414;28;20406;-79
2023/03/03 04:32:57;;;;;;;4.32;1.73;;;19.10;66.90;;;;;;5053596;28;20094;-80
2023/03/03 04:35:23;;;;;;;4.65;1.75;;;19.10;66.90;;;;;;5054233;28;20052;-79
2023/03/03 04:37:50;;;;;;;5.38;1.75;;;19.10;67.00;;;;;;5054526;28;20041;-80
2023/03/03 04:40:17;;;;;;;4.07;1.45;;;19.00;66.90;;;;;;5054158;28;20045;-79
2023/03/03 04:42:44;;;;;;;4.40;1.48;;;19.00;66.90;;;;;;5052945;28;20454;-79
2023/03/03 04:45:13;;;;;;;5.22;1.48;;;19.00;67.00;;;;;;5053515;28;20048;-80
2023/03/03 04:47:40;;;;;;;3.58;1.30;;;18.90;67.00;;;;;;5050895;28;20044;-79
2023/03/03 04:50:08;;;;;;;3.38;1.55;;;18.90;67.00;;;;;;5051240;28;20051;-79
2023/03/03 04:52:35;;;;;;;3.78;1.23;;;18.90;67.10;;;;;;5051812;28;20130;-79
2023/03/03 04:55:02;;;;;;;3.63;1.60;;;18.90;67.10;;;;;;5051102;28;20414;-79
2023/03/03 04:57:29;;;;;;;4.00;1.27;;;18.80;67.10;;;;;;5052345;28;20048;-79
2023/03/03 04:59:56;;;;;;;4.80;1.63;;;18.80;67.10;;;;;;5050868;28;20061;-79
2023/03/03 05:02:24;;;;;;;3.80;1.17;;;18.80;67.20;;;;;;5041703;28;20040;-80
2023/03/03 05:04:51;;;;;;;4.22;1.42;;;18.70;67.20;;;;;;5052812;28;20056;-79
2023/03/03 05:07:18;;;;;;;3.05;0.98;;;18.70;67.20;;;;;;5044943;28;20053;-79
2023/03/03 05:09:45;;;;;;;2.92;1.15;;;18.70;67.20;;;;;;5046342;28;20128;-79
2023/03/03 05:12:12;;;;;;;3.72;1.63;;;18.70;67.20;;;;;;5050017;28;20049;-79
2023/03/03 05:14:39;;;;;;;4.65;1.30;;;18.70;67.20;;;;;;5052168;28;20061;-79
2023/03/03 05:17:06;;;;;;;2.85;1.13;;;18.60;67.10;;;;;;5047703;28;20076;-79
2023/03/03 05:19:35;;;;;;;3.20;1.17;;;18.70;67.10;;;;;;5031005;28;20175;-80
2023/03/03 05:22:02;;;;;;;3.45;1.25;;;18.70;67.10;;;;;;5045668;28;20091;-79
2023/03/03 05:24:29;;;;;;;3.00;0.82;;;18.70;67.10;;;;;;5051092;28;20049;-80
2023/03/03 05:26:56;;;;;;;2.95;0.80;;;18.70;67.00;;;;;;5047843;28;20072;-79
2023/03/03 05:29:23;;;;;;;3.58;1.40;;;18.70;66.90;;;;;;5032094;28;20533;-79
2023/03/03 05:31:50;;;;;;;3.65;1.48;;;18.80;66.90;;;;;;5065073;28;20113;-79
2023/03/03 05:34:17;;;;;;;3.03;1.10;;;18.80;66.80;;;;;;5051669;28;20037;-79
2023/03/03 05:36:45;;;;;;;3.55;1.30;;;18.90;66.80;;;;;;5051865;28;20045;-79
2023/03/03 05:39:12;;;;;;;4.57;1.13;;;18.90;66.60;;;;;;5050797;28;20049;-80
2023/03/03 05:41:39;;;;;;;3.47;1.10;;;18.90;66.50;;;;;;5050244;28;20056;-79
2023/03/03 05:44:06;;;;;;;3.47;1.38;;;19.00;67.00;;;;;;5047683;28;20054;-80
2023/03/03 05:46:33;;;;;;;4.95;1.80;;;19.00;66.40;;;;;;5046693;28;20057;-79
2023/03/03 05:49:00;;;;;;;3.58;0.88;;;19.10;66.30;;;;;;5051985;28;20057;-79
2023/03/03 05:51:27;;;;;;;3.78;1.15;;;19.10;66.30;;;;;;5049790;28;20068;-79
2023/03/03 05:53:56;;;;;;;3.92;1.55;;;19.10;66.20;;;;;;5051936;28;20446;-79
2023/03/03 05:56:22;;;;;;;3.78;1.10;;;19.10;66.20;;;;;;5051617;28;20438;-80
2023/03/03 05:58:50;;;;;;;3.47;1.00;;;19.20;66.20;;;;;;5040188;28;20490;-80
2023/03/03 06:01:17;;;;;;;3.53;0.98;;;19.20;66.10;;;;;;5050926;28;20061;-79
2023/03/03 06:03:44;;;;;;;3.38;1.13;;;19.20;66.00;;;;;;5051467;28;20453;-79
2023/03/03 06:06:11;;;;;;;2.78;1.00;;;19.20;65.90;;;;;;5038189;28;20068;-79
2023/03/03 06:08:38;;;;;;;3.85;1.10;;;19.30;65.90;;;;;;5063782;28;20085;-80
2023/03/03 06:11:09;;;;;;;2.20;0.80;;;19.30;65.90;;;;;;5050734;28;20060;-80
2023/03/03 06:13:36;;;;;;;2.88;0.88;;;19.30;65.80;;;;;;5050931;28;20398;-80
2023/03/03 06:16:03;;;;;;;3.20;1.02;;;19.30;65.80;;;;;;5051427;28;20494;-79
2023/03/03 06:18:30;;;;;;;2.72;0.98;;;19.20;65.80;;;;;;5050461;28;20048;-79
2023/03/03 06:20:57;;;;;;;3.22;0.93;;;19.20;65.80;;;;;;5050790;28;20056;-79
2023/03/03 06:23:24;;;;;;;4.22;1.33;;;19.20;65.90;;;;;;5029804;28;20046;-80
2023/03/03 06:25:52;;;;;;;4.03;0.90;;;19.20;65.80;;;;;;5031386;28;20049;-80
2023/03/03 06:28:20;;;;;;;3.00;0.93;;;19.20;66.50;;;;;;5046595;28;20498;-80
2023/03/03 06:30:47;;;;;;;2.35;0.93;;;19.10;65.80;;;;;;5050441;28;20045;-80
2023/03/03 06:33:14;;;;;;;2.60;1.17;;;19.10;66.40;;;;;;5051089;28;20045;-80
2023/03/03 06:35:41;;;;;;;2.65;0.90;;;19.10;65.90;;;;;;5047099;28;20037;-79
2023/03/03 06:38:08;;;;;;;2.45;0.82;;;19.10;65.90;;;;;;5037766;28;20147;-80
2023/03/03 06:40:35;;;;;;;3.33;1.00;;;19.00;65.90;;;;;;5029641;28;20053;-80
2023/03/03 06:43:03;;;;;;;4.10;1.25;;;19.00;65.90;;;;;;5031520;28;20064;-80
2023/03/03 06:45:31;;;;;;;3.72;1.00;;;19.00;65.90;;;;;;5047643;28;20494;-80
2023/03/03 06:47:58;;;;;;;3.20;1.00;;;18.90;65.90;;;;;;5038521;28;20064;-80
2023/03/03 06:50:25;;;;;;;2.33;0.93;;;18.90;65.90;;;;;;5046013;28;20061;-79
2023/03/03 06:53:01;;;;;;;3.17;0.95;;;18.90;66.00;;;;;;5049192;28;20064;-80
2023/03/03 06:55:28;;;;;;;2.75;0.85;;;18.90;66.00;;;;;;5048819;28;20045;-80
2023/03/03 06:57:55;;;;;;;3.58;0.85;;;18.80;66.10;;;;;;5050571;28;20064;-79
2023/03/03 07:00:25;;;;;;;2.47;0.77;;;18.80;66.10;;;;;;5049237;28;20513;-80
2023/03/03 07:02:59;;;;;;;2.58;1.00;;;18.80;66.20;;;;;;5049162;28;20122;-79
2023/03/03 07:05:28;;;;;;;2.42;0.55;;;18.70;66.00;;;;;;5046631;28;20501;-79
2023/03/03 07:07:56;;;;;;;2.67;0.93;;;18.70;66.10;;;;;;5049254;28;20056;-79
2023/03/03 07:10:25;;;;;;;2.65;1.05;;;18.70;66.10;;;;;;5046368;28;20061;-79
2023/03/03 07:12:52;;;;;;;2.58;0.98;;;18.70;66.10;;;;;;5047957;28;20057;-79
2023/03/03 07:15:23;;;;;;;1.75;0.63;;;18.70;66.10;;;;;;5049179;28;20056;-79
2023/03/03 07:17:56;;;;;;;3.25;0.77;;;18.70;66.10;;;;;;5049333;28;20056;-81
2023/03/03 07:20:28;;;;;;;2.95;0.90;;;18.70;66.10;;;;;;5051156;28;20048;-73
2023/03/03 07:22:55;;;;;;;2.28;0.70;;;18.70;66.10;;;;;;5048871;28;20056;-73
2023/03/03 07:25:30;;;;;;;4.70;0.85;;;18.70;66.00;;;;;;5048964;28;20068;-78
2023/03/03 07:28:01;;;;;;;3.28;0.55;;;18.80;66.10;;;;;;5047615;28;20082;-80
2023/03/03 07:30:29;;;;;;;2.22;0.73;;;18.80;66.10;;;;;;5048999;28;20048;-80
2023/03/03 07:32:59;;;;;;;2.20;0.68;;;18.90;66.00;;;;;;5044774;28;20081;-80
2023/03/03 07:35:36;;;;;;;2.45;0.82;;;18.90;66.00;;;;;;5035534;28;20048;-80
2023/03/03 07:38:11;;;;;;;2.60;0.70;;;18.90;65.90;;;;;;5049786;28;20417;-80
2023/03/03 07:40:43;;;;;;;2.90;0.63;;;19.00;65.90;;;;;;5048759;28;20139;-81
2023/03/03 07:43:34;;;;;;;3.25;1.23;;;19.00;65.80;;;;;;5048360;28;20045;-80
2023/03/03 07:46:23;;;;;;;2.50;0.70;;;19.00;65.80;;;;;;5029932;28;20407;-80
2023/03/03 07:48:52;;;;;;;;;;;19.00;65.70;;;;;;5030346;28;20053;-81
2023/03/03 07:51:24;;;;;;;3.25;0.82;;;19.00;65.60;;;;;;5036687;28;19925;-80
2023/03/03 07:53:51;;;;;;;1.88;0.50;;;19.10;65.60;;;;;;5037019;28;20136;-81
2023/03/03 07:56:28;;;;;;;2.72;0.98;;;19.10;65.50;;;;;;5049423;28;20045;-81
2023/03/03 07:58:56;;;;;;;2.15;0.73;;;19.20;65.50;;;;;;5049009;28;20056;-81
2023/03/03 08:01:41;;;;;;;2.28;0.50;;;19.20;65.30;;;;;;5048540;28;20058;-80
2023/03/03 08:04:23;;;;;;;2.83;0.85;;;19.30;65.30;;;;;;5043433;28;20119;-80
2023/03/03 08:06:55;;;;;;;2.85;0.90;;;19.30;65.20;;;;;;5049709;28;20060;-80
2023/03/03 08:09:43;;;;;;;2.10;0.60;;;19.30;65.20;;;;;;5047579;28;20052;-81
2023/03/03 08:12:31;;;;;;;;;;;19.30;65.10;;;;;;5049869;28;20106;-81
2023/03/03 08:15:14;;;;;;;3.30;0.90;;;19.30;65.20;;;;;;5048242;28;19924;-81
2023/03/03 08:17:44;;;;;;;3.85;0.90;;;19.30;65.20;;;;;;5048196;28;20052;-80
2023/03/03 08:20:45;;;;;;;3.38;0.68;;;19.30;65.10;;;;;;5048480;28;20453;-81
2023/03/03 08:23:13;;;;;;;2.20;0.65;;;19.30;65.20;;;;;;5047970;28;20045;-81
2023/03/03 08:25:41;;;;;;;1.63;0.45;;;19.20;65.20;;;;;;5048089;28;20080;-80
2023/03/03 08:28:08;;;;;;;1.63;0.60;;;19.30;65.90;;;;;;5049808;28;20079;-81
2023/03/03 08:30:35;;;;;;;1.90;0.63;;;19.20;65.30;;;;;;5048807;28;20052;-81
2023/03/03 08:33:02;;;;;;;1.75;0.50;;;19.20;65.30;;;;;;5048529;28;20041;-81
2023/03/03 08:35:30;;;;;;;2.42;0.73;;;19.20;65.30;;;;;;5048274;28;20049;-80
2023/03/03 08:37:58;;;;;;;2.30;0.85;;;19.20;65.40;;;;;;5049361;28;20410;-81
2023/03/03 08:40:25;;;;;;;1.40;0.40;;;19.20;65.40;;;;;;5049591;28;20060;-80
2023/03/03 08:42:53;;;;;;;2.38;0.70;;;19.10;65.40;;;;;;5047752;28;20060;-80
2023/03/03 08:45:20;;;;;;;2.88;0.63;;;19.10;65.50;;;;;;5049344;28;20510;-80
2023/03/03 08:47:47;;;;;;;2.30;0.85;;;19.00;65.50;;;;;;5039619;28;20053;-80
2023/03/03 08:50:14;;;;;;;2.67;0.73;;;19.00;65.40;;;;;;5031771;28;20119;-80
2023/03/03 08:52:41;;;;;;;2.25;0.68;;;19.00;65.50;;;;;;5031641;28;20193;-80
2023/03/03 08:55:11;;;;;;;2.78;0.70;;;19.00;65.50;;;;;;5031852;28;20069;-81
2023/03/03 08:57:38;;;;;;;2.50;0.70;;;18.90;65.50;;;;;;5034290;28;20052;-80
2023/03/03 09:00:07;;;;;;;1.63;0.57;;;18.90;65.60;;;;;;5052606;28;20053;-80
2023/03/03 09:02:34;;;;;;;2.28;0.50;;;18.90;65.60;;;;;;5047863;28;20060;-80
2023/03/03 09:05:01;;;;;;;2.53;0.50;;;18.90;65.60;;;;;;5031319;28;20061;-80
2023/03/03 09:07:28;;;;;;;1.83;0.50;;;18.80;65.60;;;;;;5031707;28;20128;-80
2023/03/03 09:09:55;;;;;;;2.40;0.60;;;18.80;65.70;;;;;;5031402;28;20053;-80
2023/03/03 09:12:29;;;;;;;2.72;0.95;;;18.80;65.70;;;;;;5031891;28;20049;-80
2023/03/03 09:14:58;;;;;;;2.70;0.70;;;18.80;65.70;;;;;;5032871;28;20387;-80
2023/03/03 09:17:30;;;;;;;2.40;0.65;;;18.80;65.70;;;;;;5033377;28;20069;-80
2023/03/03 09:19:59;;;;;;;2.05;0.52;;;18.70;65.70;;;;;;5031743;28;20049;-81
2023/03/03 09:22:28;;;;;;;2.65;0.73;;;18.70;65.70;;;;;;5033440;28;20049;-80
2023/03/03 09:24:58;;;;;;;2.75;0.70;;;18.70;65.70;;;;;;5048831;28;20044;-81
2023/03/03 09:27:29;;;;;;;2.45;0.60;;;18.70;65.70;;;;;;5046880;28;20053;-81
2023/03/03 09:30:00;;;;;;;2.55;0.75;;;18.70;65.70;;;;;;5032380;28;20057;-80
2023/03/03 09:32:34;;;;;;;1.95;0.60;;;18.70;65.70;;;;;;5047683;28;20049;-81
2023/03/03 09:35:25;;;;;;;2.55;0.88;;;18.70;65.70;;;;;;5047521;28;20057;-80
2023/03/03 09:37:53;;;;;;;1.80;0.88;;;18.70;65.70;;;;;;5032232;28;20053;-81
2023/03/03 09:40:46;;;;;;;1.70;0.57;;;18.80;65.70;;;;;;5047092;28;20053;-80
2023/03/03 09:43:22;;;;;;;2.72;0.82;;;18.80;65.50;;;;;;5030318;28;20045;-80
2023/03/03 09:46:00;;;;;;;2.63;0.63;;;18.80;65.40;;;;;;5031969;28;20068;-81
2023/03/03 09:48:47;;;;;;;1.85;0.45;;;18.90;65.30;;;;;;5030564;28;20061;-80
2023/03/03 09:51:28;;;;;;;1.75;0.68;;;19.00;65.30;;;;;;5042884;28;20520;-81
2023/03/03 09:54:11;;;;;;;1.65;0.40;;;19.00;65.10;;;;;;5051794;28;20052;-80
2023/03/03 09:56:43;;;;;;;2.38;0.57;;;19.10;65.10;;;;;;5049896;28;20045;-79
2023/03/03 09:59:25;;;;;;;1.40;0.50;;;19.20;65.00;;;;;;5051455;28;20457;-80
2023/03/03 10:02:19;;;;;;;2.17;0.85;;;19.30;64.90;;;;;;5049952;28;20060;-80
2023/03/03 10:05:13;;;;;;;2.10;0.57;;;19.30;64.70;;;;;;5049440;28;20068;-80
2023/03/03 10:07:49;;;;;;;2.10;0.50;;;19.40;64.50;;;;;;5049790;28;20052;-80
2023/03/03 10:10:31;;;;;;;1.92;0.55;;;19.40;64.40;;;;;;5050107;28;20053;-80
2023/03/03 10:13:07;;;;;;;1.80;0.43;;;19.50;64.30;;;;;;5039580;28;20049;-80
2023/03/03 10:15:47;;;;;;;2.53;0.60;;;19.50;64.40;;;;;;5029878;28;20060;-80
2023/03/03 10:18:28;;;;;;;2.30;0.85;;;19.50;64.30;;;;;;5029927;28;20053;-80
2023/03/03 10:21:07;;;;;;;1.98;0.57;;;19.50;64.30;;;;;;5046719;28;20049;-81
2023/03/03 10:23:52;;;;;;;1.38;0.43;;;19.50;64.30;;;;;;5046448;28;20100;-80
2023/03/03 10:26:28;;;;;;;1.90;0.55;;;19.50;64.40;;;;;;5046571;28;20061;-80
2023/03/03 10:29:08;;;;;;;2.63;0.60;;;19.50;64.40;;;;;;5029839;28;20054;-81
2023/03/03 10:31:48;;;;;;;3.08;0.52;;;19.50;64.40;;;;;;5030957;28;20049;-80
2023/03/03 10:34:27;;;;;;;1.92;0.63;;;19.50;64.50;;;;;;5029691;28;20479;-80
2023/03/03 10:36:58;;;;;;;3.42;0.60;;;19.40;64.50;;;;;;5031005;28;20049;-80
2023/03/03 10:39:41;;;;;;;1.80;0.52;;;19.40;64.50;;;;;;5045583;28;20053;-80
2023/03/03 10:42:19;;;;;;;;;;;19.30;64.50;;;;;;5045644;28;20057;-80
2023/03/03 10:45:02;;;;;;;1.85;0.43;;;19.30;64.60;;;;;;5043920;28;19925;-81
2023/03/03 10:47:40;;;;;;;2.00;0.68;;;19.30;64.60;;;;;;5049265;28;20084;-80
2023/03/03 10:50:16;;;;;;;1.92;0.52;;;19.30;64.60;;;;;;5049731;28;20053;-81
2023/03/03 10:52:49;;;;;;;1.92;0.40;;;19.30;64.60;;;;;;5049904;28;20055;-76
2023/03/03 10:55:29;;;;;;;1.95;0.70;;;19.20;64.70;;;;;;5050490;28;20048;-75
2023/03/03 10:58:13;;;;;;;1.90;0.40;;;19.30;64.80;;;;;;5049368;28;20064;-75
2023/03/03 11:00:45;;;;;;;1.98;0.30;;;19.20;64.80;;;;;;5045228;28;20045;-75
2023/03/03 11:03:51;;;;;;;2.20;0.50;;;19.20;64.80;;;;;;5050363;28;20513;-75
2023/03/03 11:06:24;;;;;;;1.63;0.43;;;19.20;64.90;;;;;;5049267;28;20140;-76
2023/03/03 11:08:56;;;;;;;1.63;0.45;;;19.20;65.00;;;;;;5029583;28;20042;-75
2023/03/03 11:11:34;;;;;;;1.67;0.47;;;19.20;65.00;;;;;;5030497;28;20052;-75
2023/03/03 11:14:06;;;;;;;1.77;0.50;;;19.20;65.00;;;;;;5028474;28;20430;-75
2023/03/03 11:16:50;;;;;;;1.55;0.45;;;19.20;65.00;;;;;;5029029;28;20061;-76
2023/03/03 11:19:40;;;;;;;2.08;0.45;;;19.10;65.00;;;;;;5030323;28;20401;-76
2023/03/03 11:22:28;;;;;;;1.60;0.40;;;19.10;65.10;;;;;;5049254;28;20099;-75
2023/03/03 11:25:01;;;;;;;;;;;19.10;65.10;;;;;;5050772;28;20045;-76
2023/03/03 11:27:50;;;;;;;1.85;0.50;;;19.10;65.20;;;;;;5048290;28;20400;-76
2023/03/03 11:30:33;;;;;;;3.13;0.82;;;19.10;65.20;;;;;;5048335;28;20061;-76
2023/03/03 11:33:04;;;;;;;2.05;0.65;;;19.10;65.30;;;;;;5050063;28;20413;-75
2023/03/03 11:35:40;;;;;;;1.67;0.55;;;19.10;65.30;;;;;;5048170;28;20064;-75
2023/03/03 11:38:28;;;;;;;1.90;0.52;;;19.10;65.30;;;;;;5046021;28;20041;-75
2023/03/03 11:40:57;;;;;;;1.60;0.50;;;19.10;65.40;;;;;;5028894;28;20057;-75
2023/03/03 11:43:29;;;;;;;2.05;0.50;;;19.00;65.40;;;;;;5028632;28;20072;-76
2023/03/03 11:46:00;;;;;;;1.75;0.40;;;19.10;65.60;;;;;;5048086;28;20068;-75
2023/03/03 11:48:36;;;;;;;2.05;0.45;;;19.00;65.50;;;;;;5038882;28;20502;-76
2023/03/03 11:51:07;;;;;;;1.33;0.40;;;19.10;65.60;;;;;;5046814;28;20058;-75
2023/03/03 11:53:51;;;;;;;2.72;0.63;;;19.10;65.60;;;;;;5050074;28;20383;-75
2023/03/03 11:56:22;;;;;;;2.35;0.45;;;19.00;65.60;;;;;;5052642;28;20045;-75
2023/03/03 11:59:01;;;;;;;2.47;0.63;;;19.00;65.60;;;;;;5035809;28;20061;-75
2023/03/03 12:01:33;;;;;;;1.33;0.40;;;19.00;65.70;;;;;;5029846;28;20056;-75
2023/03/03 12:04:03;;;;;;;2.05;0.47;;;19.00;65.70;;;;;;5031077;28;20092;-79
2023/03/03 12:06:40;;;;;;;1.77;0.52;;;19.00;65.70;;;;;;5028386;28;20057;-78
2023/03/03 12:09:23;;;;;;;2.85;0.65;;;18.90;65.70;;;;;;5035840;28;20144;-74
2023/03/03 12:11:53;;;;;;;2.03;0.52;;;18.90;65.70;;;;;;5047487;28;20540;-73
2023/03/03 12:14:40;;;;;;;2.33;0.45;;;18.90;65.70;;;;;;5048098;28;20053;-73
2023/03/03 12:17:19;;;;;;;3.13;0.60;;;18.90;65.80;;;;;;5049714;28;20055;-73
2023/03/03 12:19:56;;;;;;;2.25;0.43;;;18.90;65.80;;;;;;5047977;28;20049;-73
2023/03/03 12:22:35;;;;;;;2.08;0.82;;;18.90;65.80;;;;;;5052214;28;20053;-73
2023/03/03 12:25:23;;;;;;;1.27;0.40;;;18.90;65.90;;;;;;5048020;28;20060;-78
2023/03/03 12:27:57;;;;;;;1.85;0.63;;;18.80;65.80;;;;;;5040171;28;20041;-78
2023/03/03 12:30:35;;;;;;;2.40;0.60;;;18.90;65.90;;;;;;5056848;28;20052;-78
2023/03/03 12:33:22;;;;;;;1.42;0.38;;;18.80;65.80;;;;;;5045667;28;20046;-78
2023/03/03 12:35:57;;;;;;;2.75;0.32;;;18.80;65.80;;;;;;5044375;28;20045;-78
2023/03/03 12:38:38;;;;;;;1.63;0.30;;;18.80;65.90;;;;;;5030413;28;20057;-78
2023/03/03 12:41:10;;;;;;;1.77;0.47;;;18.80;65.90;;;;;;5049394;28;20056;-78
2023/03/03 12:43:55;;;;;;;1.63;0.40;;;18.80;65.90;;;;;;5053004;28;20053;-79
2023/03/03 12:46:27;;;;;;;1.65;0.38;;;18.80;65.90;;;;;;5051511;28;20061;-78
2023/03/03 12:48:54;;;;;;;1.92;0.60;;;18.80;65.90;;;;;;5051734;28;20057;-78
2023/03/03 12:51:35;;;;;;;1.42;0.45;;;18.80;65.80;;;;;;5052830;28;20056;-78
2023/03/03 12:54:32;;;;;;;2.20;0.50;;;18.80;65.80;;;;;;5051479;28;20057;-78
2023/03/03 12:57:09;;;;;;;1.70;0.30;;;18.90;65.90;;;;;;5032774;28;20501;-78
2023/03/03 12:59:44;;;;;;;1.25;0.50;;;18.90;65.80;;;;;;5032740;28;20516;-78
2023/03/03 13:02:29;;;;;;;1.20;0.30;;;19.00;65.80;;;;;;5031836;28;20536;-78
2023/03/03 13:05:02;;;;;;;1.77;0.70;;;19.00;65.80;;;;;;5044888;28;20049;-78
2023/03/03 13:07:36;;;;;;;1.42;0.45;;;19.00;65.70;;;;;;5050830;28;20059;-78
2023/03/03 13:10:14;;;;;;;2.20;0.52;;;19.10;65.80;;;;;;5052513;28;20537;-78